This is the latest recevied weather packets stored in our database for station/object 9M4RBN-3. If no packets are shown the sender has not sent any weather packets the latest 10 day(s).
| Time | Temp. | Humidity | Pressure | Rain* | Wind** | Luminosity | Snow |
|---|---|---|---|---|---|---|---|
| 1777784794 | 26.11° C | 52% | 1015.6 hPa | - | - | - | - |
| 1777783894 | 26.11° C | 53% | 1015.8 hPa | - | - | - | - |
| 1777782994 | 26.67° C | 56% | 1016 hPa | - | - | - | - |
| 1777782094 | 26.67° C | 67% | 1016 hPa | - | - | - | - |
| 1777781194 | 26.67° C | 79% | 1016.3 hPa | - | - | - | - |
| 1777780294 | 26.11° C | 67% | 1016.3 hPa | - | - | - | - |
| 1777779394 | 26.11° C | 45% | 1016.4 hPa | - | - | - | - |
| 1777778494 | 27.22° C | 57% | 1016.5 hPa | - | - | - | - |
| 1777777594 | 27.78° C | 79% | 1016.7 hPa | - | - | - | - |
| 1777776694 | 27.78° C | 79% | 1016.6 hPa | - | - | - | - |
| 1777775795 | 27.22° C | 79% | 1016.4 hPa | - | - | - | - |
| 1777774895 | 27.22° C | 78% | 1016 hPa | - | - | - | - |
| 1777773995 | 27.22° C | 77% | 1015.9 hPa | - | - | - | - |
| 1777773095 | 26.67° C | 77% | 1016 hPa | - | - | - | - |
| 1777772195 | 26.67° C | 75% | 1015.9 hPa | - | - | - | - |
| 1777771295 | 26.67° C | 74% | 1015.8 hPa | - | - | - | - |
| 1777770395 | 26.67° C | 73% | 1015.6 hPa | - | - | - | - |
| 1777769495 | 26.11° C | 72% | 1015.3 hPa | - | - | - | - |
| 1777768595 | 26.11° C | 71% | 1014.8 hPa | - | - | - | - |
| 1777767695 | 25.56° C | 69% | 1014.6 hPa | - | - | - | - |
| 1777766795 | 25.56° C | 69% | 1014.4 hPa | - | - | - | - |
| 1777765895 | 25° C | 73% | 1014.2 hPa | - | - | - | - |
| 1777764995 | 25° C | 69% | 1014 hPa | - | - | - | - |
| 1777764095 | 24.44° C | 50% | 1013.9 hPa | - | - | - | - |
| 1777763194 | 24.44° C | 52% | 1013.8 hPa | - | - | - | - |
* Rain since midnight (hover to see other rain measurements)
** Current wind speed in m/s (hover to see current wind gust speed)